createdAt,value
2018-05-17T00:00:03.473Z,12.562
2018-05-17T00:01:03.875Z,12.625
2018-05-17T00:02:03.953Z,12.562
2018-05-17T00:03:03.974Z,12.625
2018-05-17T00:04:04.060Z,12.625
2018-05-17T00:05:04.138Z,12.625
2018-05-17T00:06:03.200Z,12.625
2018-05-17T00:07:03.316Z,12.562
2018-05-17T00:08:03.311Z,12.562
2018-05-17T00:09:03.436Z,12.562
2018-05-17T00:10:04.054Z,12.5
2018-05-17T00:11:03.874Z,12.5
2018-05-17T00:12:03.815Z,12.5
2018-05-17T00:13:03.941Z,12.437
2018-05-17T00:14:04.011Z,12.375
2018-05-17T00:15:04.021Z,12.312
2018-05-17T00:16:03.995Z,12.312
2018-05-17T00:17:04.184Z,12.312
2018-05-17T00:18:03.974Z,12.375
2018-05-17T00:19:04.372Z,12.375
2018-05-17T00:20:03.172Z,12.375
2018-05-17T00:21:04.069Z,12.375
2018-05-17T00:22:03.917Z,12.375
2018-05-17T00:23:04.053Z,12.312
2018-05-17T00:24:03.221Z,12.312
2018-05-17T00:25:03.262Z,12.375
2018-05-17T00:26:03.457Z,12.375
2018-05-17T00:27:03.537Z,12.312
2018-05-17T00:28:03.552Z,12.312
2018-05-17T00:29:03.577Z,12.375
2018-05-17T00:30:03.576Z,12.312
2018-05-17T00:31:03.788Z,12.312
2018-05-17T00:32:03.917Z,12.312
2018-05-17T00:33:03.401Z,12.25
2018-05-17T00:34:03.468Z,12.25
2018-05-17T00:35:03.492Z,12.25
2018-05-17T00:36:03.470Z,12.25
2018-05-17T00:37:03.492Z,12.25
2018-05-17T00:38:03.700Z,12.312
2018-05-17T00:39:03.807Z,12.25
2018-05-17T00:40:03.235Z,12.312
2018-05-17T00:41:04.141Z,12.25
2018-05-17T00:42:04.113Z,12.25
2018-05-17T00:43:03.190Z,12.187
2018-05-17T00:44:03.264Z,12.187
2018-05-17T00:45:03.282Z,12.187
2018-05-17T00:46:03.255Z,12.187
2018-05-17T00:47:03.419Z,12.125
2018-05-17T00:48:04.158Z,12.125
2018-05-17T00:49:03.631Z,12
2018-05-17T00:50:03.617Z,12
2018-05-17T00:51:03.668Z,11.937
2018-05-17T00:52:03.641Z,11.937
2018-05-17T00:53:03.548Z,11.875
2018-05-17T00:54:03.501Z,11.875
2018-05-17T00:55:03.516Z,11.875
2018-05-17T00:56:03.582Z,11.875
2018-05-17T00:57:03.682Z,11.812
2018-05-17T00:58:03.789Z,11.75
2018-05-17T00:59:04.145Z,11.75
2018-05-17T01:00:04.034Z,11.812
2018-05-17T01:01:03.289Z,11.75
2018-05-17T01:02:03.275Z,11.812
2018-05-17T01:03:03.294Z,11.75
2018-05-17T01:04:03.285Z,11.687
2018-05-17T01:05:03.660Z,11.625
2018-05-17T01:06:03.979Z,11.562
2018-05-17T01:07:04.059Z,11.5
2018-05-17T01:08:04.080Z,11.437
2018-05-17T01:09:03.619Z,11.375
2018-05-17T01:10:03.232Z,11.437
2018-05-17T01:11:04.176Z,11.437
2018-05-17T01:12:03.977Z,11.437
2018-05-17T01:13:03.582Z,11.375
2018-05-17T01:14:03.655Z,11.312
2018-05-17T01:15:03.718Z,11.25
2018-05-17T01:16:03.744Z,11.25
2018-05-17T01:17:04.122Z,11.187
2018-05-17T01:18:03.191Z,11.125
2018-05-17T01:19:03.322Z,11.062
2018-05-17T01:20:03.443Z,11.062
2018-05-17T01:21:03.415Z,11.062
2018-05-17T01:22:03.581Z,11.062
2018-05-17T01:23:03.749Z,11.062
2018-05-17T01:24:03.828Z,11.062
2018-05-17T01:25:03.866Z,11.062
2018-05-17T01:26:03.967Z,11.125
2018-05-17T01:27:03.193Z,11.125
2018-05-17T01:28:03.263Z,11.062
2018-05-17T01:29:04.039Z,11.125
2018-05-17T01:30:03.382Z,11.187
2018-05-17T01:31:03.403Z,11.25
2018-05-17T01:32:03.639Z,11.25
2018-05-17T01:33:03.647Z,11.187
2018-05-17T01:34:04.076Z,11.25
2018-05-17T01:35:03.278Z,11.187
2018-05-17T01:36:03.482Z,11.125
2018-05-17T01:37:03.593Z,11.125
2018-05-17T01:38:03.812Z,11.125
2018-05-17T01:39:04.127Z,11
2018-05-17T01:40:03.339Z,11
2018-05-17T01:41:03.399Z,11.062
2018-05-17T01:42:03.581Z,11
2018-05-17T01:43:03.675Z,10.937
2018-05-17T01:44:03.643Z,10.937
2018-05-17T01:45:03.564Z,10.875
2018-05-17T01:46:04.007Z,10.812
2018-05-17T01:47:04.120Z,10.875
2018-05-17T01:48:03.100Z,10.875
2018-05-17T01:49:04.131Z,10.812
2018-05-17T01:50:04.048Z,10.875
2018-05-17T01:51:03.080Z,10.812
2018-05-17T01:52:03.300Z,10.812
2018-05-17T01:53:03.637Z,10.812
2018-05-17T01:54:03.590Z,10.875
2018-05-17T01:55:03.690Z,10.875
2018-05-17T01:56:03.666Z,10.875
2018-05-17T01:57:03.751Z,10.812
2018-05-17T01:58:03.768Z,10.875
2018-05-17T01:59:03.963Z,10.812
2018-05-17T02:00:04.906Z,10.812
2018-05-17T02:01:03.662Z,10.812
2018-05-17T02:02:04.199Z,10.812
2018-05-17T02:03:04.129Z,10.812
2018-05-17T02:04:04.146Z,10.812
2018-05-17T02:05:03.249Z,10.875
2018-05-17T02:06:03.365Z,10.75
2018-05-17T02:07:03.669Z,10.75
2018-05-17T02:08:03.846Z,10.75
2018-05-17T02:09:03.885Z,10.812
2018-05-17T02:10:03.916Z,10.75
2018-05-17T02:11:04.032Z,10.687
2018-05-17T02:12:04.012Z,10.75
2018-05-17T02:13:03.104Z,10.75
2018-05-17T02:14:04.064Z,10.812
2018-05-17T02:15:03.229Z,10.687
2018-05-17T02:16:03.342Z,10.687
2018-05-17T02:17:03.575Z,10.625
2018-05-17T02:18:03.602Z,10.625
2018-05-17T02:19:03.654Z,10.625
2018-05-17T02:20:03.872Z,10.625
2018-05-17T02:21:03.829Z,10.625
2018-05-17T02:22:03.988Z,10.625
2018-05-17T02:23:04.126Z,10.625
2018-05-17T02:24:03.205Z,10.687
2018-05-17T02:25:03.977Z,10.75
2018-05-17T02:26:04.040Z,10.75
2018-05-17T02:27:03.162Z,10.812
2018-05-17T02:28:03.221Z,10.812
2018-05-17T02:29:03.231Z,10.875
2018-05-17T02:30:03.221Z,10.875
2018-05-17T02:31:03.273Z,10.875
2018-05-17T02:32:03.379Z,10.875
2018-05-17T02:33:03.491Z,10.875
2018-05-17T02:34:03.671Z,10.812
2018-05-17T02:35:03.755Z,10.75
2018-05-17T02:36:03.790Z,10.75
2018-05-17T02:37:03.786Z,10.812
2018-05-17T02:38:03.648Z,10.812
2018-05-17T02:39:03.951Z,10.75
2018-05-17T02:40:03.953Z,10.812
2018-05-17T02:41:03.286Z,10.812
2018-05-17T02:42:03.406Z,10.75
2018-05-17T02:43:03.478Z,10.75
2018-05-17T02:44:03.943Z,10.812
2018-05-17T02:45:03.148Z,10.812
2018-05-17T02:46:03.220Z,10.75
2018-05-17T02:47:03.342Z,10.687
2018-05-17T02:48:03.482Z,10.687
2018-05-17T02:49:03.483Z,10.687
2018-05-17T02:50:03.718Z,10.625
2018-05-17T02:51:03.869Z,10.562
2018-05-17T02:52:03.964Z,10.625
2018-05-17T02:53:03.902Z,10.625
2018-05-17T02:54:03.883Z,10.625
2018-05-17T02:55:03.882Z,10.625
2018-05-17T02:56:04.048Z,10.625
2018-05-17T02:57:03.370Z,10.562
2018-05-17T02:58:04.033Z,10.562
2018-05-17T02:59:03.165Z,10.562
2018-05-17T03:00:03.232Z,10.562
2018-05-17T03:01:03.402Z,10.625
2018-05-17T03:02:03.294Z,10.625
2018-05-17T03:03:03.175Z,10.625
2018-05-17T03:04:03.151Z,10.687
2018-05-17T03:05:03.232Z,10.687
2018-05-17T03:06:03.313Z,10.687
2018-05-17T03:07:03.288Z,10.687
2018-05-17T03:08:03.210Z,10.687
2018-05-17T03:09:03.344Z,10.687
2018-05-17T03:10:03.661Z,10.687
2018-05-17T03:11:03.183Z,10.625
2018-05-17T03:12:03.190Z,10.625
2018-05-17T03:13:04.118Z,10.687
2018-05-17T03:14:04.172Z,10.687
2018-05-17T03:15:03.329Z,10.625
2018-05-17T03:16:03.432Z,10.562
2018-05-17T03:17:03.675Z,10.562
2018-05-17T03:18:03.719Z,10.562
2018-05-17T03:19:03.749Z,10.625
2018-05-17T03:20:04.852Z,10.687
2018-05-17T03:21:03.748Z,10.625
2018-05-17T03:22:03.980Z,10.562
2018-05-17T03:23:04.158Z,10.5
2018-05-17T03:24:03.451Z,10.5
2018-05-17T03:25:03.661Z,10.5
2018-05-17T03:26:03.920Z,10.562
2018-05-17T03:27:04.037Z,10.562
2018-05-17T03:28:04.071Z,10.562
2018-05-17T03:29:03.248Z,10.625
2018-05-17T03:30:03.328Z,10.562
2018-05-17T03:31:03.406Z,10.562
2018-05-17T03:32:03.591Z,10.562
2018-05-17T03:33:03.916Z,10.562
2018-05-17T03:34:03.966Z,10.562
2018-05-17T03:35:04.067Z,10.562
2018-05-17T03:36:03.474Z,10.5
2018-05-17T03:37:03.609Z,10.562
2018-05-17T03:38:03.703Z,10.562
2018-05-17T03:39:05.031Z,10.5
2018-05-17T03:40:04.008Z,10.5
2018-05-17T03:41:04.061Z,10.5
2018-05-17T03:42:04.048Z,10.562
2018-05-17T03:43:03.257Z,10.562
2018-05-17T03:44:03.265Z,10.5
2018-05-17T03:45:03.971Z,10.5
2018-05-17T03:46:03.878Z,10.562
2018-05-17T03:47:03.936Z,10.562
2018-05-17T03:48:03.945Z,10.562
2018-05-17T03:49:04.067Z,10.625
2018-05-17T03:50:03.283Z,10.625
2018-05-17T03:51:03.352Z,10.687
2018-05-17T03:52:03.526Z,10.625
2018-05-17T03:53:03.622Z,10.625
2018-05-17T03:54:03.643Z,10.625
2018-05-17T03:55:03.719Z,10.625
2018-05-17T03:56:03.893Z,10.625
2018-05-17T03:57:04.058Z,10.687
2018-05-17T03:58:04.016Z,10.687
2018-05-17T03:59:03.298Z,10.75
2018-05-17T04:00:03.323Z,10.75
2018-05-17T04:01:03.819Z,10.812
2018-05-17T04:02:03.960Z,10.812
2018-05-17T04:03:03.319Z,10.875
2018-05-17T04:04:03.318Z,10.937
2018-05-17T04:05:03.322Z,10.937
2018-05-17T04:06:03.422Z,11
2018-05-17T04:07:03.505Z,11.062
2018-05-17T04:08:03.561Z,11.125
2018-05-17T04:09:03.731Z,11.187
2018-05-17T04:10:03.798Z,11.187
2018-05-17T04:11:03.818Z,11.187
2018-05-17T04:12:03.815Z,11.25
2018-05-17T04:13:03.928Z,11.312
2018-05-17T04:14:03.888Z,11.312
2018-05-17T04:15:04.204Z,11.375
2018-05-17T04:16:03.458Z,11.375
2018-05-17T04:17:03.627Z,11.437
2018-05-17T04:18:03.502Z,11.437
2018-05-17T04:19:03.563Z,11.5
2018-05-17T04:20:03.580Z,11.562
2018-05-17T04:21:04.660Z,11.625
2018-05-17T04:22:03.552Z,11.687
2018-05-17T04:23:03.580Z,11.75
2018-05-17T04:24:03.643Z,11.812
2018-05-17T04:25:04.234Z,11.812
2018-05-17T04:26:03.808Z,11.937
2018-05-17T04:27:03.957Z,12
2018-05-17T04:28:03.960Z,12
2018-05-17T04:29:04.166Z,12.062
2018-05-17T04:30:04.142Z,12.125
2018-05-17T04:31:03.257Z,12.187
2018-05-17T04:32:03.282Z,12.187
2018-05-17T04:33:03.426Z,12.25
2018-05-17T04:34:03.491Z,12.312
2018-05-17T04:35:03.697Z,12.437
2018-05-17T04:36:03.829Z,12.625
2018-05-17T04:37:04.087Z,12.875
2018-05-17T04:38:03.994Z,13.062
2018-05-17T04:39:03.508Z,13.312
2018-05-17T04:40:03.579Z,13.562
2018-05-17T04:41:03.800Z,13.875
2018-05-17T04:42:04.047Z,14.125
2018-05-17T04:43:04.196Z,14.312
2018-05-17T04:44:04.166Z,14.5
2018-05-17T04:45:03.204Z,14.625
2018-05-17T04:46:03.268Z,14.75
2018-05-17T04:47:03.441Z,14.875
2018-05-17T04:48:03.571Z,14.875
2018-05-17T04:49:03.711Z,15.062
2018-05-17T04:50:03.768Z,15.312
2018-05-17T04:51:03.640Z,15.312
2018-05-17T04:52:03.584Z,15.5
2018-05-17T04:53:03.694Z,15.812
2018-05-17T04:54:03.825Z,15.875
2018-05-17T04:55:03.787Z,16.187
2018-05-17T04:56:03.797Z,16.5
2018-05-17T04:57:03.308Z,16.687
2018-05-17T04:58:03.261Z,16.75
2018-05-17T04:59:03.344Z,16.812
2018-05-17T05:00:03.651Z,16.937
2018-05-17T05:01:03.919Z,17.25
2018-05-17T05:02:04.010Z,17.187
2018-05-17T05:03:03.946Z,17.562
2018-05-17T05:04:03.939Z,17.687
2018-05-17T05:05:04.077Z,17.75
2018-05-17T05:06:03.410Z,17.875
2018-05-17T05:07:03.627Z,17.937
2018-05-17T05:08:03.696Z,18.125
2018-05-17T05:09:03.797Z,18.5
2018-05-17T05:10:03.987Z,18.75
2018-05-17T05:11:03.111Z,18.687
2018-05-17T05:12:03.424Z,18.5
2018-05-17T05:13:03.662Z,18.562
2018-05-17T05:14:03.808Z,18.812
2018-05-17T05:15:03.966Z,18.875
2018-05-17T05:16:03.204Z,19.25
2018-05-17T05:17:03.465Z,19.562
2018-05-17T05:18:03.573Z,19.625
2018-05-17T05:19:03.771Z,19.562
2018-05-17T05:20:03.892Z,19.625
2018-05-17T05:21:03.962Z,19.687
2018-05-17T05:22:04.145Z,19.812
2018-05-17T05:23:03.511Z,19.687
2018-05-17T05:24:03.259Z,19.812
2018-05-17T05:25:03.408Z,20.25
2018-05-17T05:26:03.581Z,20.062
2018-05-17T05:27:03.586Z,20.125
2018-05-17T05:28:03.600Z,20.375
2018-05-17T05:29:03.272Z,20.25
2018-05-17T05:30:03.329Z,19.812
2018-05-17T05:31:03.973Z,19.562
2018-05-17T05:32:04.130Z,19.75
2018-05-17T05:33:03.198Z,19.75
2018-05-17T05:34:03.200Z,20.125
2018-05-17T05:35:03.173Z,20.312
2018-05-17T05:36:03.327Z,20.312
2018-05-17T05:37:03.405Z,20.875
2018-05-17T05:38:03.474Z,20.937
2018-05-17T05:39:03.648Z,21.062
2018-05-17T05:40:04.141Z,21.375
2018-05-17T05:41:03.182Z,21.312
2018-05-17T05:42:03.914Z,21.562
2018-05-17T05:43:04.090Z,22
2018-05-17T05:44:04.124Z,22.25
2018-05-17T05:45:03.102Z,22.437
2018-05-17T05:46:03.489Z,22.25
2018-05-17T05:47:03.733Z,22.25
2018-05-17T05:48:03.888Z,22.25
2018-05-17T05:49:04.075Z,22.875
2018-05-17T05:50:03.288Z,22.937
2018-05-17T05:51:03.248Z,23.312
2018-05-17T05:52:03.423Z,23.625
2018-05-17T05:53:03.464Z,23.937
2018-05-17T05:54:03.666Z,23.875
2018-05-17T05:55:03.609Z,23.937
2018-05-17T05:56:03.772Z,24.25
2018-05-17T05:57:03.666Z,24.75
2018-05-17T05:58:03.826Z,24.187
2018-05-17T05:59:04.018Z,23.75
2018-05-17T06:00:03.309Z,23.687
2018-05-17T06:01:03.675Z,23.375
2018-05-17T06:02:03.648Z,22.937
2018-05-17T06:03:03.647Z,23.062
2018-05-17T06:04:03.733Z,23.375
2018-05-17T06:05:03.888Z,23.875
2018-05-17T06:06:04.006Z,24.25
2018-05-17T06:07:03.446Z,24.375
2018-05-17T06:08:03.623Z,24.75
2018-05-17T06:09:04.277Z,25.312
2018-05-17T06:10:03.527Z,24.687
2018-05-17T06:11:04.165Z,23.687
2018-05-17T06:12:03.247Z,23.687
2018-05-17T06:13:03.321Z,22.937
2018-05-17T06:14:03.325Z,23.062
2018-05-17T06:15:03.464Z,22.937
2018-05-17T06:16:03.586Z,22.437
2018-05-17T06:17:03.727Z,22.187
2018-05-17T06:18:03.764Z,21.625
2018-05-17T06:19:03.822Z,21.625
2018-05-17T06:20:03.757Z,21.875
2018-05-17T06:21:03.954Z,21.187
2018-05-17T06:22:04.186Z,21.312
2018-05-17T06:23:03.185Z,21.437
2018-05-17T06:24:03.487Z,21.812
2018-05-17T06:25:03.614Z,21.375
2018-05-17T06:26:03.788Z,20.937
2018-05-17T06:27:03.989Z,20.312
2018-05-17T06:28:04.234Z,20.25
2018-05-17T06:29:03.357Z,19.937
2018-05-17T06:30:03.353Z,19.875
2018-05-17T06:31:03.476Z,20
2018-05-17T06:32:03.377Z,19.687
2018-05-17T06:33:03.501Z,20.187
2018-05-17T06:34:03.678Z,20.75
2018-05-17T06:35:03.708Z,20.812
2018-05-17T06:36:03.638Z,20.937
2018-05-17T06:37:03.638Z,20.312
2018-05-17T06:38:03.717Z,19.75
2018-05-17T06:39:03.959Z,19.625
2018-05-17T06:40:03.262Z,19.5
2018-05-17T06:41:03.246Z,19.437
2018-05-17T06:42:03.337Z,19.437
2018-05-17T06:43:03.508Z,19.875
2018-05-17T06:44:04.470Z,20.75
2018-05-17T06:45:03.396Z,21.75
2018-05-17T06:46:03.477Z,21.625
2018-05-17T06:47:03.630Z,22.312
2018-05-17T06:48:03.526Z,23.375
2018-05-17T06:49:03.987Z,23.687
2018-05-17T06:50:03.944Z,24.562
2018-05-17T06:51:03.300Z,25.75
2018-05-17T06:52:03.609Z,26
2018-05-17T06:53:03.707Z,26.812
2018-05-17T06:54:03.813Z,27.625
2018-05-17T06:55:03.898Z,27.375
2018-05-17T06:56:03.274Z,27.25
2018-05-17T06:57:03.464Z,26.75
2018-05-17T06:58:03.680Z,26.562
2018-05-17T06:59:03.888Z,25.875
2018-05-17T07:00:04.103Z,26.875
2018-05-17T07:01:04.228Z,27.062
2018-05-17T07:02:03.275Z,28.125
2018-05-17T07:03:03.185Z,28.125
2018-05-17T07:04:03.903Z,28.562
2018-05-17T07:05:04.002Z,29.5
2018-05-17T07:06:04.050Z,30.187
2018-05-17T07:07:03.233Z,29.5
2018-05-17T07:08:03.290Z,29.187
2018-05-17T07:09:03.345Z,28
2018-05-17T07:10:03.286Z,27.875
2018-05-17T07:11:03.279Z,27.5
2018-05-17T07:12:03.542Z,27.75
2018-05-17T07:13:03.545Z,28
2018-05-17T07:14:03.667Z,28.812
2018-05-17T07:15:03.668Z,29.25
2018-05-17T07:16:03.823Z,29.375
2018-05-17T07:17:04.126Z,29.375
2018-05-17T07:18:03.432Z,28.437
2018-05-17T07:19:03.562Z,27.625
2018-05-17T07:20:03.583Z,26.937
2018-05-17T07:21:03.530Z,28.312
2018-05-17T07:22:03.646Z,28.312
2018-05-17T07:23:03.689Z,28.562
2018-05-17T07:24:03.272Z,29.125
2018-05-17T07:25:03.906Z,29.562
2018-05-17T07:26:04.000Z,30.312
2018-05-17T07:27:04.244Z,29.625
2018-05-17T07:28:03.699Z,28.812
2018-05-17T07:29:03.893Z,28.937
2018-05-17T07:30:04.353Z,28.625
2018-05-17T07:31:04.010Z,27.937
2018-05-17T07:32:04.090Z,28.375
2018-05-17T07:33:03.255Z,28.437
2018-05-17T07:34:03.302Z,26.937
2018-05-17T07:35:03.276Z,26.562
2018-05-17T07:36:03.271Z,25.625
2018-05-17T07:37:03.344Z,25.125
2018-05-17T07:38:03.398Z,25.187
2018-05-17T07:39:03.648Z,24.875
2018-05-17T07:40:03.459Z,24.625
2018-05-17T07:41:03.626Z,23.937
2018-05-17T07:42:03.585Z,23.312
2018-05-17T07:43:03.722Z,23.125
2018-05-17T07:44:03.798Z,23.062
2018-05-17T07:45:03.895Z,23.187
2018-05-17T07:46:03.937Z,23.562
2018-05-17T07:47:05.012Z,24.062
2018-05-17T07:48:04.024Z,23.312
2018-05-17T07:49:04.029Z,23.187
2018-05-17T07:50:04.144Z,23
2018-05-17T07:51:03.299Z,22.625
2018-05-17T07:52:03.856Z,22.625
2018-05-17T07:53:03.891Z,22.5
2018-05-17T07:54:03.501Z,22.687
2018-05-17T07:55:03.531Z,22.937
2018-05-17T07:56:04.060Z,22.875
2018-05-17T07:57:03.270Z,22.812
2018-05-17T07:58:03.285Z,22.937
2018-05-17T07:59:03.579Z,22.437
2018-05-17T08:00:03.669Z,22.125
2018-05-17T08:01:03.745Z,21.937
2018-05-17T08:02:03.864Z,22.062
2018-05-17T08:03:03.814Z,21.812
2018-05-17T08:04:04.065Z,22.312
2018-05-17T08:05:04.053Z,22.437
2018-05-17T08:06:04.149Z,22.125
2018-05-17T08:07:03.208Z,22.062
2018-05-17T08:08:03.229Z,22.312
2018-05-17T08:09:03.388Z,22.562
2018-05-17T08:10:04.066Z,22.75
2018-05-17T08:11:03.163Z,22.5
2018-05-17T08:12:04.062Z,22.562
2018-05-17T08:13:03.136Z,22.312
2018-05-17T08:14:03.561Z,22.062
2018-05-17T08:15:03.555Z,22.187
2018-05-17T08:16:03.506Z,22.312
2018-05-17T08:17:03.581Z,22.187
2018-05-17T08:18:03.615Z,24.062
2018-05-17T08:19:03.450Z,24.312
2018-05-17T08:20:03.625Z,24.125
2018-05-17T08:21:03.677Z,23.812
2018-05-17T08:22:03.816Z,24.312
2018-05-17T08:23:03.360Z,25.437
2018-05-17T08:24:03.347Z,26.812
2018-05-17T08:25:03.481Z,26.5
2018-05-17T08:26:03.531Z,26.625
2018-05-17T08:27:03.615Z,26.5
2018-05-17T08:28:03.689Z,26.375
2018-05-17T08:29:03.693Z,26.062
2018-05-17T08:30:03.848Z,26.562
2018-05-17T08:31:03.895Z,26.187
2018-05-17T08:32:04.006Z,25.25
2018-05-17T08:33:03.318Z,24.187
2018-05-17T08:34:03.820Z,23.375
2018-05-17T08:35:04.041Z,23
2018-05-17T08:36:03.172Z,22.937
2018-05-17T08:37:03.183Z,23
2018-05-17T08:38:03.272Z,24.25
2018-05-17T08:39:03.469Z,25.125
2018-05-17T08:40:03.962Z,26.375
2018-05-17T08:41:04.107Z,26.562
2018-05-17T08:42:03.303Z,26.187
2018-05-17T08:43:03.406Z,26.562
2018-05-17T08:44:03.504Z,26.187
2018-05-17T08:45:03.695Z,25.875
2018-05-17T08:46:03.784Z,25.562
2018-05-17T08:47:03.955Z,25.625
2018-05-17T08:48:03.921Z,26.437
2018-05-17T08:49:03.865Z,27.125
2018-05-17T08:50:03.260Z,27.687
2018-05-17T08:51:03.388Z,28.062
2018-05-17T08:52:03.209Z,27.437
2018-05-17T08:53:03.265Z,26.187
2018-05-17T08:54:03.410Z,25.5
2018-05-17T08:55:03.550Z,24.25
2018-05-17T08:56:03.423Z,23.625
2018-05-17T08:57:03.894Z,23.625
2018-05-17T08:58:04.019Z,23.75
2018-05-17T08:59:04.088Z,24.062
2018-05-17T09:00:04.065Z,24.125
2018-05-17T09:01:04.203Z,24.625
2018-05-17T09:02:03.268Z,25.625
2018-05-17T09:03:03.357Z,25.687
2018-05-17T09:04:03.419Z,25.375
2018-05-17T09:05:03.624Z,25.187
2018-05-17T09:06:03.601Z,24.75
2018-05-17T09:07:03.644Z,24.25
2018-05-17T09:08:03.751Z,23.812
2018-05-17T09:09:03.883Z,23.125
2018-05-17T09:10:03.180Z,22.812
2018-05-17T09:11:03.723Z,22.625
2018-05-17T09:12:03.179Z,22.812
2018-05-17T09:13:03.306Z,22.937
2018-05-17T09:14:03.260Z,23.5
2018-05-17T09:15:03.324Z,23.937
2018-05-17T09:16:03.801Z,24.687
2018-05-17T09:17:04.150Z,24.562
2018-05-17T09:18:03.240Z,24.812
2018-05-17T09:19:03.258Z,24.437
2018-05-17T09:20:03.484Z,24.625
2018-05-17T09:21:03.863Z,24.625
2018-05-17T09:22:03.962Z,24.25
2018-05-17T09:23:03.202Z,23.875
2018-05-17T09:24:03.267Z,23.937
2018-05-17T09:25:03.344Z,24.5
2018-05-17T09:26:03.644Z,25.125
2018-05-17T09:27:03.817Z,25.187
2018-05-17T09:28:03.805Z,24.812
2018-05-17T09:29:04.013Z,24.875
2018-05-17T09:30:03.336Z,24
2018-05-17T09:31:03.351Z,23.937
2018-05-17T09:32:03.422Z,23.875
2018-05-17T09:33:04.451Z,23.812
2018-05-17T09:34:03.325Z,24.562
2018-05-17T09:35:03.529Z,24.062
2018-05-17T09:36:03.771Z,24.062
2018-05-17T09:37:03.528Z,24.187
2018-05-17T09:38:03.569Z,23.75
2018-05-17T09:39:03.823Z,23.5
2018-05-17T09:40:03.313Z,23.5
2018-05-17T09:41:03.348Z,23.687
2018-05-17T09:42:04.046Z,23.687
2018-05-17T09:43:04.202Z,24.75
2018-05-17T09:44:03.265Z,25.625
2018-05-17T09:45:03.376Z,25.625
2018-05-17T09:46:03.296Z,25.5
2018-05-17T09:47:03.368Z,25.125
2018-05-17T09:48:03.310Z,24.937
2018-05-17T09:49:03.662Z,25.062
2018-05-17T09:50:03.741Z,25.437
2018-05-17T09:51:03.881Z,25.25
2018-05-17T09:52:04.040Z,24.562
2018-05-17T09:53:04.165Z,24.125
2018-05-17T09:54:03.332Z,23.937
2018-05-17T09:55:03.481Z,23.125
2018-05-17T09:56:03.869Z,23.25
2018-05-17T09:57:03.259Z,24.062
2018-05-17T09:58:03.263Z,24.562
2018-05-17T09:59:03.334Z,24.625
2018-05-17T10:00:03.507Z,24.562
2018-05-17T10:01:03.684Z,24.187
2018-05-17T10:02:03.669Z,24.437
2018-05-17T10:03:03.618Z,23.437
2018-05-17T10:04:03.583Z,23.687
2018-05-17T10:05:03.719Z,22.875
2018-05-17T10:06:03.669Z,23
2018-05-17T10:07:03.849Z,23.375
2018-05-17T10:08:03.988Z,23.5
2018-05-17T10:09:03.349Z,23.375
2018-05-17T10:10:04.166Z,23.75
2018-05-17T10:11:03.321Z,24
2018-05-17T10:12:03.237Z,24.25
2018-05-17T10:13:03.263Z,24.062
2018-05-17T10:14:03.246Z,24.625
2018-05-17T10:15:03.276Z,24.812
2018-05-17T10:16:03.469Z,24.812
2018-05-17T10:17:03.774Z,25.312
2018-05-17T10:18:03.851Z,26.187
2018-05-17T10:19:03.934Z,25.312
2018-05-17T10:20:04.144Z,25.187
2018-05-17T10:21:03.265Z,25.437
2018-05-17T10:22:03.413Z,26
2018-05-17T10:23:04.344Z,25.75
2018-05-17T10:24:03.464Z,26
2018-05-17T10:25:03.519Z,26.812
2018-05-17T10:26:03.642Z,26.875
2018-05-17T10:27:03.623Z,26.875
2018-05-17T10:28:03.691Z,26.375
2018-05-17T10:29:03.808Z,26.25
2018-05-17T10:30:03.825Z,26.25
2018-05-17T10:31:04.027Z,26.562
